Time;durP1;ratioP1;P1;durP2;ratioP2;P2;SDS_P1;SDS_P2;PMS_P1;PMS_P2;Temp;Humidity;BMP_temperature;BMP_pressure;BME280_temperature;BME280_humidity;BME280_pressure;Samples;Min_cycle;Max_cycle;Signal;HPM_P1;HPM_P2
2023/10/31 00:01:00;;;;;;;18.35;8.05;;;;;;;;;;4988477;28;20018;-71
2023/10/31 00:03:26;;;;;;;15.25;6.85;;;;;;;;;;4988476;28;20022;-71
2023/10/31 00:05:51;;;;;;;16.13;7.85;;;;;;;;;;4987989;28;20018;-69
2023/10/31 00:08:16;;;;;;;20.17;8.85;;;;;;;;;;4988411;28;20018;-70
2023/10/31 00:10:44;;;;;;;20.27;8.60;;;;;;;;;;4971925;28;20022;-70
2023/10/31 00:13:10;;;;;;;14.27;8.32;;;;;;;;;;4991105;28;20553;-71
2023/10/31 00:15:35;;;;;;;17.75;9.13;;;;;;;;;;4991212;28;20056;-70
2023/10/31 00:18:00;;;;;;;23.15;8.85;;;;;;;;;;4991372;28;20648;-70
2023/10/31 00:20:26;;;;;;;21.60;8.77;;;;;;;;;;4988608;28;20069;-71
2023/10/31 00:22:51;;;;;;;19.80;8.82;;;;;;;;;;4975002;28;20018;-70
2023/10/31 00:25:16;;;;;;;19.75;9.50;;;;;;;;;;4988634;28;20018;-71
2023/10/31 00:27:41;;;;;;;18.80;9.30;;;;;;;;;;4991825;28;20026;-70
2023/10/31 00:30:07;;;;;;;18.30;9.00;;;;;;;;;;4992615;28;20527;-69
2023/10/31 00:32:32;;;;;;;27.40;9.35;;;;;;;;;;4991171;28;20029;-71
2023/10/31 00:34:57;;;;;;;18.13;9.75;;;;;;;;;;4992400;28;20015;-69
2023/10/31 00:37:22;;;;;;;18.65;9.35;;;;;;;;;;4991706;28;20036;-71
2023/10/31 00:39:48;;;;;;;20.58;10.18;;;;;;;;;;4992169;28;20390;-70
2023/10/31 00:42:13;;;;;;;25.48;10.52;;;;;;;;;;4984418;28;20605;-71
2023/10/31 00:44:38;;;;;;;17.88;9.45;;;;;;;;;;4990119;28;20623;-70
2023/10/31 00:47:05;;;;;;;16.40;8.75;;;;;;;;;;4990720;28;20620;-69
2023/10/31 00:49:30;;;;;;;15.35;8.80;;;;;;;;;;4992278;28;20026;-69
2023/10/31 00:51:55;;;;;;;18.42;9.10;;;;;;;;;;4991547;28;20105;-70
2023/10/31 00:54:20;;;;;;;18.77;9.73;;;;;;;;;;4991950;28;20097;-70
2023/10/31 00:56:45;;;;;;;21.25;9.57;;;;;;;;;;4972051;28;20084;-71
2023/10/31 00:59:11;;;;;;;17.02;10.15;;;;;;;;;;4992062;28;20382;-71
2023/10/31 01:01:36;;;;;;;22.58;10.27;;;;;;;;;;4990624;28;20418;-70
2023/10/31 01:04:01;;;;;;;22.33;10.30;;;;;;;;;;4991494;28;20026;-72
2023/10/31 01:06:26;;;;;;;20.40;10.30;;;;;;;;;;4990376;28;20022;-71
2023/10/31 01:08:52;;;;;;;19.38;10.38;;;;;;;;;;4991449;28;20048;-71
2023/10/31 01:11:17;;;;;;;20.52;11.55;;;;;;;;;;4989429;28;20153;-72
2023/10/31 01:13:42;;;;;;;39.40;21.92;;;;;;;;;;4991406;28;20096;-73
2023/10/31 01:16:07;;;;;;;28.15;15.30;;;;;;;;;;4989676;28;20539;-71
2023/10/31 01:18:33;;;;;;;24.95;14.52;;;;;;;;;;4991246;28;20393;-71
2023/10/31 01:20:58;;;;;;;23.75;13.85;;;;;;;;;;4987155;28;20029;-71
2023/10/31 01:23:23;;;;;;;22.20;11.93;;;;;;;;;;4978573;28;20026;-70
2023/10/31 01:25:48;;;;;;;20.23;11.77;;;;;;;;;;4989690;28;20022;-70
2023/10/31 01:28:13;;;;;;;18.60;11.95;;;;;;;;;;4990222;28;20038;-71
2023/10/31 01:30:39;;;;;;;21.45;12.98;;;;;;;;;;4990226;28;20011;-70
2023/10/31 01:33:04;;;;;;;20.13;12.23;;;;;;;;;;4990213;28;20018;-70
2023/10/31 01:35:29;;;;;;;27.23;14.23;;;;;;;;;;4989879;28;20015;-71
2023/10/31 01:37:54;;;;;;;21.52;13.45;;;;;;;;;;4990690;28;20384;-70
2023/10/31 01:40:19;;;;;;;33.83;15.27;;;;;;;;;;4990337;28;20021;-72
2023/10/31 01:42:45;;;;;;;28.83;16.33;;;;;;;;;;4983069;28;20018;-70
2023/10/31 01:45:10;;;;;;;26.20;15.40;;;;;;;;;;4987230;28;20105;-70
2023/10/31 01:47:35;;;;;;;24.88;15.68;;;;;;;;;;4988894;28;20049;-69
2023/10/31 01:50:01;;;;;;;26.77;14.52;;;;;;;;;;4973178;28;20018;-70
2023/10/31 01:52:26;;;;;;;24.60;13.50;;;;;;;;;;4990833;28;20019;-70
2023/10/31 01:54:52;;;;;;;24.23;14.00;;;;;;;;;;4990229;28;20068;-70
2023/10/31 01:57:18;;;;;;;24.98;13.63;;;;;;;;;;4989191;28;20037;-72
2023/10/31 01:59:43;;;;;;;26.33;14.77;;;;;;;;;;4990566;28;20029;-72
2023/10/31 02:02:09;;;;;;;24.02;14.45;;;;;;;;;;4988997;28;20034;-74
2023/10/31 02:04:35;;;;;;;29.80;15.13;;;;;;;;;;4989640;28;20030;-73
2023/10/31 02:07:00;;;;;;;22.25;13.60;;;;;;;;;;4989692;28;20033;-73
2023/10/31 02:09:27;;;;;;;27.70;15.27;;;;;;;;;;4990198;28;20019;-73
2023/10/31 02:11:52;;;;;;;26.13;15.68;;;;;;;;;;4986602;28;20006;-72
2023/10/31 02:14:18;;;;;;;26.58;15.25;;;;;;;;;;4990426;28;20026;-72
2023/10/31 02:16:43;;;;;;;23.52;15.20;;;;;;;;;;4988529;28;20030;-77
2023/10/31 02:19:09;;;;;;;25.52;15.38;;;;;;;;;;4986346;28;20030;-73
2023/10/31 02:21:34;;;;;;;26.17;14.65;;;;;;;;;;4990038;28;20026;-73
2023/10/31 02:24:01;;;;;;;18.05;12.32;;;;;;;;;;4970799;28;20077;-74
2023/10/31 02:26:30;;;;;;;24.60;12.38;;;;;;;;;;4987235;28;20548;-74
2023/10/31 02:28:55;;;;;;;20.30;10.15;;;;;;;;;;4989287;28;20022;-71
2023/10/31 02:31:20;;;;;;;16.88;9.23;;;;;;;;;;4971039;28;20029;-73
2023/10/31 02:33:46;;;;;;;20.20;9.38;;;;;;;;;;4988701;28;20046;-71
2023/10/31 02:36:11;;;;;;;15.27;8.02;;;;;;;;;;4989120;28;20140;-71
2023/10/31 02:38:36;;;;;;;12.50;7.55;;;;;;;;;;4989896;28;20080;-74
2023/10/31 02:41:01;;;;;;;15.32;7.90;;;;;;;;;;4989643;28;20478;-72
2023/10/31 02:43:26;;;;;;;12.68;7.35;;;;;;;;;;4986436;28;20031;-71
2023/10/31 02:45:52;;;;;;;13.55;7.63;;;;;;;;;;4989037;28;20077;-72
2023/10/31 02:48:17;;;;;;;14.65;7.70;;;;;;;;;;4988615;28;20030;-71
2023/10/31 02:50:43;;;;;;;13.95;8.27;;;;;;;;;;4989873;28;20054;-73
2023/10/31 02:53:08;;;;;;;15.57;7.88;;;;;;;;;;4988998;28;20069;-73
2023/10/31 02:55:33;;;;;;;14.27;7.65;;;;;;;;;;4988440;28;20011;-73
2023/10/31 02:57:58;;;;;;;14.23;8.27;;;;;;;;;;4988505;28;20022;-73
2023/10/31 03:00:25;;;;;;;18.15;7.82;;;;;;;;;;4988862;28;20034;-70
2023/10/31 03:02:50;;;;;;;17.40;9.32;;;;;;;;;;4988260;28;20023;-73
2023/10/31 03:05:16;;;;;;;15.45;8.77;;;;;;;;;;4988638;28;20022;-72
2023/10/31 03:07:41;;;;;;;14.43;8.18;;;;;;;;;;4988688;28;20018;-73
2023/10/31 03:10:06;;;;;;;19.02;8.25;;;;;;;;;;4989348;28;20722;-73
2023/10/31 03:12:31;;;;;;;18.20;8.82;;;;;;;;;;4987926;28;20030;-73
2023/10/31 03:14:57;;;;;;;15.30;8.98;;;;;;;;;;4989409;28;20037;-72
2023/10/31 03:17:22;;;;;;;17.02;9.27;;;;;;;;;;4987689;28;20478;-73
2023/10/31 03:19:47;;;;;;;15.73;9.35;;;;;;;;;;4986468;28;20025;-74
2023/10/31 03:22:13;;;;;;;17.95;9.70;;;;;;;;;;4988853;28;20018;-72
2023/10/31 03:24:38;;;;;;;14.35;9.13;;;;;;;;;;4983403;28;20536;-75
2023/10/31 03:27:03;;;;;;;16.00;8.88;;;;;;;;;;4987371;28;20015;-74
2023/10/31 03:29:29;;;;;;;16.50;9.30;;;;;;;;;;4988820;28;20394;-71
2023/10/31 03:31:54;;;;;;;17.77;9.10;;;;;;;;;;4988081;28;20589;-73
2023/10/31 03:34:19;;;;;;;18.52;9.80;;;;;;;;;;4989114;28;20406;-73
2023/10/31 03:36:44;;;;;;;17.15;8.18;;;;;;;;;;4988641;28;20381;-73
2023/10/31 03:39:10;;;;;;;17.85;9.23;;;;;;;;;;4988468;28;20478;-73
2023/10/31 03:41:35;;;;;;;16.02;8.90;;;;;;;;;;4981272;28;20049;-73
2023/10/31 03:44:00;;;;;;;19.35;9.65;;;;;;;;;;4988085;28;20461;-73
2023/10/31 03:46:26;;;;;;;17.65;9.50;;;;;;;;;;4990093;28;20026;-73
2023/10/31 03:48:51;;;;;;;16.58;9.25;;;;;;;;;;4992705;28;20014;-72
2023/10/31 03:51:16;;;;;;;16.75;9.73;;;;;;;;;;4978045;28;20050;-74
2023/10/31 03:53:41;;;;;;;18.95;9.23;;;;;;;;;;4992355;28;20505;-70
2023/10/31 03:56:07;;;;;;;19.13;9.13;;;;;;;;;;4990877;28;20014;-73
2023/10/31 03:58:32;;;;;;;17.40;9.07;;;;;;;;;;4991617;28;20030;-74
2023/10/31 04:00:57;;;;;;;18.33;8.52;;;;;;;;;;4992113;28;20035;-72
2023/10/31 04:03:22;;;;;;;14.93;7.25;;;;;;;;;;4991763;28;20053;-73
2023/10/31 04:05:47;;;;;;;17.33;6.80;;;;;;;;;;4991442;28;20094;-73
2023/10/31 04:08:13;;;;;;;13.70;7.18;;;;;;;;;;4992548;28;20036;-73
2023/10/31 04:10:38;;;;;;;8.95;5.82;;;;;;;;;;4992169;28;20390;-74
2023/10/31 04:13:03;;;;;;;9.60;5.53;;;;;;;;;;4991356;28;20409;-75
2023/10/31 04:15:29;;;;;;;10.52;5.38;;;;;;;;;;4991011;28;20516;-73
2023/10/31 04:17:54;;;;;;;8.25;3.80;;;;;;;;;;4991653;28;20018;-72
2023/10/31 04:20:19;;;;;;;9.38;3.88;;;;;;;;;;4988264;28;20014;-72
2023/10/31 04:22:45;;;;;;;6.55;3.38;;;;;;;;;;4992438;28;20081;-72
2023/10/31 04:25:10;;;;;;;6.28;3.22;;;;;;;;;;4988139;28;20042;-71
2023/10/31 04:27:35;;;;;;;7.13;2.72;;;;;;;;;;4991530;28;20466;-73
2023/10/31 04:30:01;;;;;;;6.75;3.42;;;;;;;;;;4991289;28;20038;-73
2023/10/31 04:32:26;;;;;;;5.68;3.10;;;;;;;;;;4990460;28;20093;-74
2023/10/31 04:34:51;;;;;;;6.25;3.00;;;;;;;;;;4991745;28;20089;-73
2023/10/31 04:37:16;;;;;;;5.68;2.83;;;;;;;;;;4991130;28;20105;-72
2023/10/31 04:39:42;;;;;;;5.90;3.00;;;;;;;;;;4992222;28;20084;-72
2023/10/31 04:42:07;;;;;;;5.95;2.65;;;;;;;;;;4991753;28;20027;-71
2023/10/31 04:44:32;;;;;;;6.00;2.55;;;;;;;;;;4991293;28;20093;-72
2023/10/31 04:46:58;;;;;;;7.35;3.03;;;;;;;;;;4990552;28;20432;-72
2023/10/31 04:49:23;;;;;;;5.63;2.75;;;;;;;;;;4991131;28;20482;-73
2023/10/31 04:51:49;;;;;;;3.35;1.88;;;;;;;;;;4991841;28;20042;-73
2023/10/31 04:54:14;;;;;;;3.83;2.00;;;;;;;;;;4991282;28;20409;-74
2023/10/31 04:56:40;;;;;;;3.97;2.00;;;;;;;;;;4989758;28;20050;-74
2023/10/31 04:59:05;;;;;;;3.88;1.83;;;;;;;;;;4989130;28;20109;-72
2023/10/31 05:01:30;;;;;;;2.83;1.30;;;;;;;;;;4989463;28;20042;-72
2023/10/31 05:03:56;;;;;;;2.20;1.30;;;;;;;;;;4991459;28;20015;-72
2023/10/31 05:06:22;;;;;;;5.28;1.52;;;;;;;;;;4989733;28;20065;-74
2023/10/31 05:08:47;;;;;;;3.17;1.30;;;;;;;;;;4992067;28;20033;-73
2023/10/31 05:11:13;;;;;;;1.83;1.33;;;;;;;;;;4988193;28;20018;-72
2023/10/31 05:13:38;;;;;;;4.90;1.48;;;;;;;;;;4990262;28;20466;-74
2023/10/31 05:16:04;;;;;;;3.10;1.15;;;;;;;;;;4988894;28;20492;-74
2023/10/31 05:18:29;;;;;;;4.13;1.50;;;;;;;;;;4990686;28;20098;-73
2023/10/31 05:20:54;;;;;;;2.70;1.15;;;;;;;;;;4987517;28;20022;-73
2023/10/31 05:23:19;;;;;;;2.45;1.23;;;;;;;;;;4989580;28;20034;-74
2023/10/31 05:25:45;;;;;;;5.32;1.73;;;;;;;;;;4987520;28;20026;-72
2023/10/31 05:28:10;;;;;;;4.47;1.40;;;;;;;;;;4990142;28;20023;-73
2023/10/31 05:30:35;;;;;;;7.88;1.27;;;;;;;;;;4989710;28;20021;-71
2023/10/31 05:33:00;;;;;;;1.75;1.02;;;;;;;;;;4990108;28;20022;-72
2023/10/31 05:35:26;;;;;;;3.10;1.20;;;;;;;;;;4990723;28;20050;-72
2023/10/31 05:37:51;;;;;;;1.88;1.08;;;;;;;;;;4977744;28;20022;-72
2023/10/31 05:40:17;;;;;;;2.50;1.15;;;;;;;;;;4991174;28;20509;-73
2023/10/31 05:42:42;;;;;;;1.08;0.73;;;;;;;;;;4988930;28;20566;-73
2023/10/31 05:45:08;;;;;;;2.72;1.00;;;;;;;;;;4987832;28;20029;-71
2023/10/31 05:47:33;;;;;;;5.57;0.82;;;;;;;;;;4990100;28;20030;-71
2023/10/31 05:49:58;;;;;;;2.65;0.80;;;;;;;;;;4991414;28;20046;-71
2023/10/31 05:52:27;;;;;;;1.27;0.82;;;;;;;;;;4990605;28;20109;-70
2023/10/31 05:54:52;;;;;;;1.42;0.77;;;;;;;;;;4990602;28;20010;-72
2023/10/31 05:57:17;;;;;;;4.40;0.75;;;;;;;;;;4989572;28;20025;-73
2023/10/31 05:59:43;;;;;;;0.60;0.60;;;;;;;;;;4990232;28;20022;-71
2023/10/31 06:02:08;;;;;;;1.65;0.73;;;;;;;;;;4990389;28;20029;-72
2023/10/31 06:04:33;;;;;;;1.27;0.80;;;;;;;;;;4990547;28;22061;-71
2023/10/31 06:06:58;;;;;;;1.05;0.75;;;;;;;;;;4989615;28;20120;-71
2023/10/31 06:09:24;;;;;;;5.45;1.00;;;;;;;;;;4990297;28;20030;-72
2023/10/31 06:11:49;;;;;;;3.80;0.80;;;;;;;;;;4990007;28;20046;-71
2023/10/31 06:14:14;;;;;;;3.40;1.77;;;;;;;;;;4989681;28;20526;-71
2023/10/31 06:16:43;;;;;;;2.63;0.88;;;;;;;;;;4989156;28;20021;-70
2023/10/31 06:19:08;;;;;;;0.90;0.60;;;;;;;;;;4987954;28;20502;-72
2023/10/31 06:21:34;;;;;;;1.02;0.73;;;;;;;;;;4989793;28;20038;-75
2023/10/31 06:23:59;;;;;;;1.00;0.60;;;;;;;;;;4989274;28;20022;-73
2023/10/31 06:26:24;;;;;;;1.42;0.88;;;;;;;;;;4987993;28;20026;-72
2023/10/31 06:28:49;;;;;;;1.13;0.68;;;;;;;;;;4971568;28;20037;-72
2023/10/31 06:31:15;;;;;;;2.20;0.57;;;;;;;;;;4989128;28;20015;-74
2023/10/31 06:33:40;;;;;;;2.25;0.90;;;;;;;;;;4990333;28;20044;-72
2023/10/31 06:36:06;;;;;;;0.90;0.70;;;;;;;;;;4989603;28;20017;-71
2023/10/31 06:38:31;;;;;;;1.80;0.82;;;;;;;;;;4989945;28;20022;-72
2023/10/31 06:40:57;;;;;;;4.82;1.15;;;;;;;;;;4985202;28;20030;-71
2023/10/31 06:43:22;;;;;;;0.70;0.60;;;;;;;;;;4983875;28;20026;-72
2023/10/31 06:45:47;;;;;;;1.38;0.82;;;;;;;;;;4988961;28;20092;-73
2023/10/31 06:48:12;;;;;;;0.70;0.70;;;;;;;;;;4989134;28;20023;-73
2023/10/31 06:50:38;;;;;;;1.75;0.77;;;;;;;;;;4989227;28;20011;-73
2023/10/31 06:53:03;;;;;;;2.63;0.85;;;;;;;;;;4989095;28;20367;-70
2023/10/31 06:55:28;;;;;;;1.70;0.80;;;;;;;;;;4988469;28;20022;-71
2023/10/31 06:57:53;;;;;;;0.90;0.70;;;;;;;;;;4988435;28;20085;-72
2023/10/31 07:00:19;;;;;;;0.60;0.60;;;;;;;;;;4988847;28;20109;-71
2023/10/31 07:02:44;;;;;;;1.35;0.68;;;;;;;;;;4971240;28;20018;-70
2023/10/31 07:05:10;;;;;;;3.42;0.80;;;;;;;;;;4988457;28;20389;-72
2023/10/31 07:07:35;;;;;;;0.90;0.60;;;;;;;;;;4988905;28;20481;-72
2023/10/31 07:10:00;;;;;;;1.63;0.80;;;;;;;;;;4990041;28;20037;-72
2023/10/31 07:12:25;;;;;;;1.75;0.75;;;;;;;;;;4988533;28;20549;-71
2023/10/31 07:14:51;;;;;;;1.38;0.60;;;;;;;;;;4988697;28;20025;-72
2023/10/31 07:17:16;;;;;;;1.60;1.08;;;;;;;;;;4987960;28;20019;-70
2023/10/31 07:19:41;;;;;;;0.80;0.68;;;;;;;;;;4984391;28;20057;-71
2023/10/31 07:22:06;;;;;;;1.48;0.70;;;;;;;;;;4989210;28;20390;-70
2023/10/31 07:24:31;;;;;;;1.58;0.77;;;;;;;;;;4988504;28;20002;-72
2023/10/31 07:26:57;;;;;;;6.75;0.70;;;;;;;;;;4987897;28;20022;-71
2023/10/31 07:29:22;;;;;;;0.57;0.52;;;;;;;;;;4988231;28;20501;-71
2023/10/31 07:31:47;;;;;;;0.60;0.60;;;;;;;;;;4988206;28;20098;-71
2023/10/31 07:34:13;;;;;;;0.75;0.57;;;;;;;;;;4989246;28;20049;-71
2023/10/31 07:36:39;;;;;;;4.57;0.80;;;;;;;;;;4988508;28;20014;-72
2023/10/31 07:39:04;;;;;;;1.40;0.70;;;;;;;;;;4989374;28;20471;-72
2023/10/31 07:41:30;;;;;;;1.92;0.85;;;;;;;;;;4981778;28;20019;-72
2023/10/31 07:43:55;;;;;;;2.75;0.80;;;;;;;;;;4986544;28;20508;-72
2023/10/31 07:46:20;;;;;;;0.60;0.60;;;;;;;;;;4986924;28;20611;-74
2023/10/31 07:48:45;;;;;;;1.23;0.60;;;;;;;;;;4988240;28;20019;-71
2023/10/31 07:51:11;;;;;;;0.70;0.60;;;;;;;;;;4989008;28;20042;-69
2023/10/31 07:53:36;;;;;;;1.23;0.60;;;;;;;;;;5019281;23;20048;-65
2023/10/31 07:56:01;;;;;;;2.28;0.80;;;;;;;;;;5007926;28;20059;-66
2023/10/31 07:58:27;;;;;;;0.60;0.60;;;;;;;;;;5006797;28;20022;-68
2023/10/31 08:00:52;;;;;;;1.00;0.70;;;;;;;;;;5013827;28;20025;-66
2023/10/31 08:03:17;;;;;;;0.98;0.55;;;;;;;;;;5017570;28;20444;-67
2023/10/31 08:05:43;;;;;;;2.95;0.57;;;;;;;;;;5027227;28;20032;-66
2023/10/31 08:08:08;;;;;;;1.27;0.90;;;;;;;;;;5027188;28;20469;-64
2023/10/31 08:10:34;;;;;;;1.58;0.60;;;;;;;;;;5028097;28;20627;-66
2023/10/31 08:12:59;;;;;;;4.75;0.63;;;;;;;;;;5023122;28;20462;-66
2023/10/31 08:15:25;;;;;;;1.25;0.60;;;;;;;;;;5027537;28;20021;-63
2023/10/31 08:17:50;;;;;;;1.08;0.52;;;;;;;;;;5023410;28;20022;-67
2023/10/31 08:20:15;;;;;;;1.58;0.80;;;;;;;;;;5028605;28;20508;-66
2023/10/31 08:22:42;;;;;;;0.50;0.43;;;;;;;;;;5028029;28;20510;-67
2023/10/31 08:25:08;;;;;;;1.27;0.70;;;;;;;;;;5024771;28;20060;-63
2023/10/31 08:27:33;;;;;;;1.48;0.80;;;;;;;;;;5027360;28;20045;-67
2023/10/31 08:29:58;;;;;;;2.65;0.82;;;;;;;;;;5027708;28;20512;-65
2023/10/31 08:32:24;;;;;;;1.15;0.60;;;;;;;;;;5028152;28;20179;-65
2023/10/31 08:34:49;;;;;;;5.38;0.70;;;;;;;;;;5030721;28;20710;-66
2023/10/31 08:37:15;;;;;;;0.63;0.50;;;;;;;;;;5027222;28;20034;-63
2023/10/31 08:39:40;;;;;;;3.28;0.60;;;;;;;;;;5030871;28;20026;-67
2023/10/31 08:42:05;;;;;;;1.27;0.60;;;;;;;;;;5027839;28;20675;-65
2023/10/31 08:44:33;;;;;;;0.40;0.32;;;;;;;;;;5026926;28;20032;-66
2023/10/31 08:46:58;;;;;;;0.47;0.40;;;;;;;;;;5029682;28;20029;-65
2023/10/31 08:49:23;;;;;;;1.73;0.73;;;;;;;;;;5030942;28;20025;-65
2023/10/31 08:51:49;;;;;;;1.42;0.63;;;;;;;;;;5031132;28;20005;-66
2023/10/31 08:54:14;;;;;;;1.45;0.60;;;;;;;;;;5030596;28;20029;-64
2023/10/31 08:56:39;;;;;;;0.60;0.55;;;;;;;;;;5030386;28;20018;-63
2023/10/31 08:59:04;;;;;;;1.65;0.65;;;;;;;;;;5030122;28;20112;-66
2023/10/31 09:01:30;;;;;;;3.67;0.47;;;;;;;;;;5029472;28;20471;-65
2023/10/31 09:03:55;;;;;;;0.75;0.43;;;;;;;;;;5030638;28;20021;-65
2023/10/31 09:06:20;;;;;;;1.67;0.50;;;;;;;;;;5022963;28;20025;-66
2023/10/31 09:08:45;;;;;;;1.35;0.50;;;;;;;;;;5026610;28;20032;-64
2023/10/31 09:11:11;;;;;;;0.52;0.40;;;;;;;;;;5030519;28;20097;-66
2023/10/31 09:13:36;;;;;;;2.88;0.60;;;;;;;;;;5030603;28;20009;-66
2023/10/31 09:16:01;;;;;;;0.70;0.50;;;;;;;;;;5029319;28;20029;-65
2023/10/31 09:18:27;;;;;;;2.05;0.60;;;;;;;;;;5014365;28;20045;-65
2023/10/31 09:20:52;;;;;;;1.35;0.70;;;;;;;;;;5028220;28;20483;-61
2023/10/31 09:23:18;;;;;;;1.48;0.68;;;;;;;;;;5026695;28;20028;-65
2023/10/31 09:25:43;;;;;;;1.33;0.55;;;;;;;;;;5024887;28;20029;-66
2023/10/31 09:28:09;;;;;;;1.58;0.60;;;;;;;;;;5027449;28;20056;-66
2023/10/31 09:30:34;;;;;;;5.25;0.60;;;;;;;;;;5028658;28;20520;-63
2023/10/31 09:32:59;;;;;;;1.55;0.68;;;;;;;;;;5025961;28;20622;-66
2023/10/31 09:35:26;;;;;;;0.75;0.50;;;;;;;;;;5028229;28;20036;-63
2023/10/31 09:37:51;;;;;;;0.30;0.30;;;;;;;;;;5029556;28;20026;-68
2023/10/31 09:40:16;;;;;;;0.73;0.50;;;;;;;;;;5027433;28;20044;-63
2023/10/31 09:42:42;;;;;;;1.00;0.50;;;;;;;;;;5020639;28;20021;-63
2023/10/31 09:45:08;;;;;;;1.27;0.40;;;;;;;;;;5026445;28;20040;-66
2023/10/31 09:47:33;;;;;;;0.75;0.40;;;;;;;;;;5023316;28;20030;-64
2023/10/31 09:49:59;;;;;;;0.73;0.50;;;;;;;;;;5026020;28;20383;-66
2023/10/31 09:52:24;;;;;;;0.52;0.50;;;;;;;;;;5019814;28;20049;-66
2023/10/31 09:54:51;;;;;;;2.78;0.55;;;;;;;;;;5026814;28;20041;-66
2023/10/31 09:57:17;;;;;;;0.55;0.55;;;;;;;;;;5026850;28;20013;-65
2023/10/31 09:59:42;;;;;;;0.35;0.30;;;;;;;;;;5024601;28;20103;-66
2023/10/31 10:02:07;;;;;;;0.73;0.30;;;;;;;;;;5024259;28;20037;-66
2023/10/31 10:04:33;;;;;;;0.30;0.30;;;;;;;;;;5023878;28;20040;-65
2023/10/31 10:06:59;;;;;;;0.30;0.30;;;;;;;;;;5006593;28;20018;-64
2023/10/31 10:09:24;;;;;;;2.10;0.35;;;;;;;;;;5029185;28;20100;-66
2023/10/31 10:11:51;;;;;;;0.38;0.38;;;;;;;;;;5028664;28;20080;-65
2023/10/31 10:14:16;;;;;;;2.63;0.55;;;;;;;;;;5028190;28;20025;-65
2023/10/31 10:16:42;;;;;;;8.80;0.60;;;;;;;;;;5025945;28;20044;-66
2023/10/31 10:19:17;;;;;;;0.40;0.40;;;;;;;;;;5026800;28;20014;-66
2023/10/31 10:21:55;;;;;;;0.88;0.35;;;;;;;;;;5020383;28;20017;-64
2023/10/31 10:24:21;;;;;;;6.55;0.50;;;;;;;;;;5005771;28;20018;-66
2023/10/31 10:26:47;;;;;;;0.45;0.38;;;;;;;;;;5027507;28;20452;-67
2023/10/31 10:29:12;;;;;;;0.68;0.30;;;;;;;;;;5028874;28;20026;-65
2023/10/31 10:31:37;;;;;;;0.60;0.30;;;;;;;;;;5026879;28;20017;-66
2023/10/31 10:34:03;;;;;;;0.50;0.40;;;;;;;;;;5029086;28;20442;-63
2023/10/31 10:36:28;;;;;;;2.60;0.52;;;;;;;;;;5028731;28;20013;-66
2023/10/31 10:38:57;;;;;;;1.17;0.70;;;;;;;;;;5024968;28;20025;-66
2023/10/31 10:41:22;;;;;;;;;;;;;;;;;;5019468;28;21184;-66
2023/10/31 10:43:49;;;;;;;1.63;0.50;;;;;;;;;;5028525;28;20380;-65
2023/10/31 10:46:17;;;;;;;0.47;0.40;;;;;;;;;;5009210;28;20505;-65
2023/10/31 10:48:45;;;;;;;0.40;0.40;;;;;;;;;;5021606;28;20384;-65
2023/10/31 10:51:18;;;;;;;0.30;0.30;;;;;;;;;;5023825;28;20021;-64
2023/10/31 10:53:52;;;;;;;0.38;0.38;;;;;;;;;;5027959;28;20167;-64
2023/10/31 10:56:21;;;;;;;0.93;0.50;;;;;;;;;;5026725;28;20148;-64
2023/10/31 10:59:13;;;;;;;1.08;0.55;;;;;;;;;;5028444;28;20021;-63
2023/10/31 11:01:38;;;;;;;2.65;0.52;;;;;;;;;;5019274;28;20033;-66
2023/10/31 11:04:05;;;;;;;1.15;0.70;;;;;;;;;;5027475;28;20594;-66
2023/10/31 11:06:30;;;;;;;0.70;0.40;;;;;;;;;;5022978;28;20029;-63
2023/10/31 11:08:55;;;;;;;0.73;0.40;;;;;;;;;;5005370;28;20048;-66
2023/10/31 11:11:22;;;;;;;0.90;0.30;;;;;;;;;;5028874;28;20014;-64
2023/10/31 11:13:49;;;;;;;1.77;0.50;;;;;;;;;;5027602;28;20018;-66
2023/10/31 11:16:24;;;;;;;1.45;0.50;;;;;;;;;;5019677;28;20032;-66
2023/10/31 11:18:49;;;;;;;1.45;0.60;;;;;;;;;;5024865;28;20025;-67
2023/10/31 11:21:15;;;;;;;0.40;0.40;;;;;;;;;;5027894;28;20030;-67
2023/10/31 11:23:41;;;;;;;0.47;0.40;;;;;;;;;;5028207;28;20034;-65
2023/10/31 11:26:09;;;;;;;2.75;0.50;;;;;;;;;;5028164;28;20022;-65
2023/10/31 11:28:35;;;;;;;1.08;0.47;;;;;;;;;;5024438;28;20026;-66
2023/10/31 11:31:02;;;;;;;0.75;0.40;;;;;;;;;;5029425;28;20445;-65
2023/10/31 11:33:27;;;;;;;2.10;0.63;;;;;;;;;;5029957;28;20021;-67
2023/10/31 11:36:03;;;;;;;0.93;0.60;;;;;;;;;;5025462;28;20024;-64
2023/10/31 11:38:35;;;;;;;0.82;0.52;;;;;;;;;;5023766;28;20029;-68
2023/10/31 11:41:02;;;;;;;0.85;0.50;;;;;;;;;;5021759;28;20421;-70
2023/10/31 11:43:50;;;;;;;0.50;0.50;;;;;;;;;;5026910;28;20658;-67
2023/10/31 11:46:20;;;;;;;0.57;0.43;;;;;;;;;;5027946;28;20022;-71
2023/10/31 11:48:52;;;;;;;1.23;0.60;;;;;;;;;;5012156;28;20030;-70
2023/10/31 11:51:18;;;;;;;2.10;0.70;;;;;;;;;;5023075;28;20029;-67
2023/10/31 11:53:43;;;;;;;1.40;0.63;;;;;;;;;;5024516;28;20051;-65
2023/10/31 11:56:12;;;;;;;1.38;0.68;;;;;;;;;;5026346;28;20084;-68
2023/10/31 11:58:37;;;;;;;0.63;0.50;;;;;;;;;;5024774;28;20025;-65
2023/10/31 12:01:03;;;;;;;3.97;0.95;;;;;;;;;;5027127;28;20022;-68
2023/10/31 12:03:36;;;;;;;1.15;0.57;;;;;;;;;;5027169;28;20017;-68
2023/10/31 12:06:01;;;;;;;1.40;0.80;;;;;;;;;;5028006;28;20730;-66
2023/10/31 12:08:30;;;;;;;1.50;0.70;;;;;;;;;;5032587;28;20093;-67
2023/10/31 12:11:09;;;;;;;1.60;1.02;;;;;;;;;;5030941;28;20041;-68
2023/10/31 12:13:35;;;;;;;2.20;0.70;;;;;;;;;;5031446;28;20763;-66
2023/10/31 12:16:01;;;;;;;5.88;0.85;;;;;;;;;;5030588;28;20026;-65
2023/10/31 12:18:27;;;;;;;1.10;0.70;;;;;;;;;;5031160;28;20022;-66
2023/10/31 12:20:52;;;;;;;1.05;0.57;;;;;;;;;;5030951;28;20049;-64
2023/10/31 12:23:18;;;;;;;1.73;0.85;;;;;;;;;;5031309;28;20022;-67
2023/10/31 12:25:49;;;;;;;4.90;0.77;;;;;;;;;;5026413;28;20022;-65
2023/10/31 12:28:21;;;;;;;1.05;0.68;;;;;;;;;;5029626;28;20022;-66
2023/10/31 12:30:47;;;;;;;2.53;0.80;;;;;;;;;;5029550;28;20686;-68
2023/10/31 12:33:12;;;;;;;1.52;0.70;;;;;;;;;;5030066;28;20018;-66
2023/10/31 12:35:38;;;;;;;0.50;0.50;;;;;;;;;;5030633;28;20018;-68
2023/10/31 12:38:04;;;;;;;1.13;0.70;;;;;;;;;;5025473;28;20117;-63
2023/10/31 12:40:29;;;;;;;3.03;0.65;;;;;;;;;;5027475;28;20057;-67
2023/10/31 12:42:54;;;;;;;1.60;0.90;;;;;;;;;;5026450;28;20130;-67
2023/10/31 12:45:20;;;;;;;2.13;0.80;;;;;;;;;;5026264;28;20036;-68
2023/10/31 12:47:59;;;;;;;1.80;0.95;;;;;;;;;;5028611;28;20047;-67
2023/10/31 12:50:24;;;;;;;0.82;0.70;;;;;;;;;;5029606;28;20032;-64
2023/10/31 12:52:53;;;;;;;1.98;0.65;;;;;;;;;;5030934;28;20018;-67
2023/10/31 12:55:22;;;;;;;9.35;1.30;;;;;;;;;;5029672;28;20022;-64
2023/10/31 12:57:48;;;;;;;1.50;0.68;;;;;;;;;;5029903;28;20183;-67
2023/10/31 13:00:14;;;;;;;2.90;0.88;;;;;;;;;;5029267;28;20081;-68
2023/10/31 13:02:40;;;;;;;0.88;0.57;;;;;;;;;;5026090;28;20456;-67
2023/10/31 13:05:08;;;;;;;0.70;0.50;;;;;;;;;;5030301;28;20080;-64
2023/10/31 13:07:34;;;;;;;2.55;0.70;;;;;;;;;;5030272;28;20029;-67
2023/10/31 13:09:59;;;;;;;1.77;0.90;;;;;;;;;;5031252;28;20109;-66
2023/10/31 13:12:26;;;;;;;1.33;0.73;;;;;;;;;;5027606;28;20378;-64
2023/10/31 13:14:52;;;;;;;1.30;0.60;;;;;;;;;;5026986;28;20180;-68
2023/10/31 13:17:17;;;;;;;1.58;0.88;;;;;;;;;;5025047;28;20422;-67
2023/10/31 13:19:42;;;;;;;1.00;0.60;;;;;;;;;;5025355;28;20022;-68
2023/10/31 13:22:08;;;;;;;2.58;0.60;;;;;;;;;;5030405;28;20036;-67
2023/10/31 13:24:34;;;;;;;1.25;0.70;;;;;;;;;;5029062;28;20184;-68
2023/10/31 13:27:00;;;;;;;1.35;0.70;;;;;;;;;;5027626;28;20117;-68
2023/10/31 13:29:27;;;;;;;3.00;0.60;;;;;;;;;;5028199;28;20555;-66
2023/10/31 13:31:55;;;;;;;3.55;1.00;;;;;;;;;;5020518;28;20029;-67
2023/10/31 13:34:20;;;;;;;3.97;0.90;;;;;;;;;;5028765;28;20112;-67
2023/10/31 13:36:46;;;;;;;1.40;0.77;;;;;;;;;;5028954;28;20101;-66
2023/10/31 13:39:11;;;;;;;4.70;1.30;;;;;;;;;;5030462;28;20026;-66
2023/10/31 13:41:36;;;;;;;1.45;0.57;;;;;;;;;;5022492;28;20385;-65
2023/10/31 13:44:03;;;;;;;0.70;0.60;;;;;;;;;;5027285;28;20302;-67
2023/10/31 13:46:28;;;;;;;1.33;0.80;;;;;;;;;;5026131;28;20033;-66
2023/10/31 13:48:53;;;;;;;1.35;0.80;;;;;;;;;;5029052;28;20471;-65
2023/10/31 13:51:19;;;;;;;1.23;0.57;;;;;;;;;;5026848;28;20091;-66
2023/10/31 13:53:44;;;;;;;0.85;0.70;;;;;;;;;;5033894;23;20502;-67
2023/10/31 13:56:09;;;;;;;1.95;0.77;;;;;;;;;;5000499;28;20500;-70
2023/10/31 13:58:35;;;;;;;1.55;0.70;;;;;;;;;;5016418;28;20568;-69
2023/10/31 14:01:00;;;;;;;1.73;0.80;;;;;;;;;;5009064;28;20101;-70
2023/10/31 14:03:26;;;;;;;0.70;0.63;;;;;;;;;;5014547;28;20013;-71
2023/10/31 14:05:51;;;;;;;1.25;1.00;;;;;;;;;;5024789;28;20026;-70
2023/10/31 14:08:16;;;;;;;2.70;0.60;;;;;;;;;;5028677;28;20052;-70
2023/10/31 14:10:45;;;;;;;1.70;0.88;;;;;;;;;;5028566;28;20013;-71
2023/10/31 14:13:10;;;;;;;;;;;;;;;;;;5028043;28;20021;-70
2023/10/31 14:15:35;;;;;;;1.70;0.70;;;;;;;;;;5027347;28;19916;-71
2023/10/31 14:18:00;;;;;;;1.45;0.60;;;;;;;;;;5028355;28;20020;-69
2023/10/31 14:20:26;;;;;;;2.47;0.60;;;;;;;;;;5029592;28;20029;-71
2023/10/31 14:22:51;;;;;;;1.48;0.80;;;;;;;;;;5011801;28;20022;-70
2023/10/31 14:25:16;;;;;;;1.92;0.95;;;;;;;;;;5023660;28;20029;-68
2023/10/31 14:27:43;;;;;;;1.92;0.80;;;;;;;;;;5026979;28;20029;-70
2023/10/31 14:30:09;;;;;;;1.33;0.75;;;;;;;;;;5029146;28;20460;-70